createdAt,value
2018-07-20T00:01:55.993Z,21.73
2018-07-20T00:06:58.988Z,21.53
2018-07-20T00:12:02.001Z,21.37
2018-07-20T00:17:05.026Z,21.37
2018-07-20T00:22:08.062Z,21.36
2018-07-20T00:27:11.044Z,21.29
2018-07-20T00:32:14.035Z,21.39
2018-07-20T00:37:17.049Z,21.49
2018-07-20T00:42:20.053Z,21.43
2018-07-20T00:47:23.051Z,21.26
2018-07-20T00:52:26.116Z,20.88
2018-07-20T00:57:29.166Z,20.63
2018-07-20T01:02:32.144Z,20.59
2018-07-20T01:07:35.120Z,20.50
2018-07-20T01:12:38.121Z,20.45
2018-07-20T01:17:41.113Z,20.44
2018-07-20T01:22:44.156Z,20.44
2018-07-20T01:27:47.335Z,20.44
2018-07-20T01:32:50.377Z,20.49
2018-07-20T01:37:53.386Z,20.51
2018-07-20T01:42:56.398Z,20.52
2018-07-20T01:47:59.417Z,20.62
2018-07-20T01:53:02.475Z,20.61
2018-07-20T01:58:05.802Z,20.66
2018-07-20T02:03:08.895Z,20.61
2018-07-20T02:08:12.208Z,20.48
2018-07-20T02:13:15.270Z,20.28
2018-07-20T02:18:18.261Z,20.22
2018-07-20T02:23:22.342Z,20.32
2018-07-20T02:28:25.311Z,20.40
2018-07-20T02:33:28.310Z,20.43
2018-07-20T02:38:31.393Z,20.49
2018-07-20T02:43:34.423Z,20.54
2018-07-20T02:48:37.465Z,20.58
2018-07-20T02:53:40.540Z,20.56
2018-07-20T02:58:43.566Z,20.60
2018-07-20T03:03:46.585Z,20.54
2018-07-20T03:08:49.912Z,20.62
2018-07-20T03:13:52.951Z,20.52
2018-07-20T03:18:56.026Z,20.21
2018-07-20T03:23:59.078Z,20.28
2018-07-20T03:29:02.154Z,20.38
2018-07-20T03:34:05.146Z,20.29
2018-07-20T03:39:09.201Z,20.13
2018-07-20T03:44:12.264Z,20.29
2018-07-20T03:49:15.270Z,20.30
2018-07-20T03:54:18.349Z,20.26
2018-07-20T03:59:21.412Z,20.39
2018-07-20T04:04:24.474Z,20.39
2018-07-20T04:09:27.542Z,20.30
2018-07-20T04:14:30.513Z,20.36
2018-07-20T04:19:33.501Z,20.46
2018-07-20T04:24:36.537Z,20.42
2018-07-20T04:29:39.632Z,20.51
2018-07-20T04:34:42.690Z,20.63
2018-07-20T04:39:45.714Z,20.67
2018-07-20T04:44:48.742Z,20.81
2018-07-20T04:49:51.784Z,20.95
2018-07-20T04:54:54.794Z,20.91
2018-07-20T04:59:57.774Z,20.94
2018-07-20T05:05:00.758Z,21.07
2018-07-20T05:10:04.257Z,21.20
2018-07-20T05:15:07.319Z,21.27
2018-07-20T05:20:10.405Z,21.26
2018-07-20T05:25:13.450Z,21.36
2018-07-20T05:30:16.649Z,21.71
2018-07-20T05:35:19.662Z,21.80
2018-07-20T05:40:22.894Z,21.84
2018-07-20T05:45:25.895Z,21.98
2018-07-20T05:50:29.084Z,22.10
2018-07-20T05:55:32.093Z,22.23
2018-07-20T06:00:35.149Z,22.31
2018-07-20T06:05:38.238Z,22.28
2018-07-20T06:10:41.244Z,22.47
2018-07-20T06:15:44.302Z,22.27
2018-07-20T06:20:47.506Z,22.28
2018-07-20T06:25:50.562Z,22.35
2018-07-20T06:30:53.593Z,22.50
2018-07-20T06:35:56.646Z,22.87
2018-07-20T06:40:59.675Z,22.99
2018-07-20T06:46:02.725Z,23.25
2018-07-20T06:51:05.945Z,23.37
2018-07-20T06:56:09.036Z,23.40
2018-07-20T07:01:12.066Z,23.32
2018-07-20T07:06:15.080Z,23.43
2018-07-20T07:11:18.149Z,23.65
2018-07-20T07:16:21.195Z,23.51
2018-07-20T07:21:24.244Z,23.39
2018-07-20T07:26:27.274Z,23.58
2018-07-20T07:31:30.321Z,23.74
2018-07-20T07:36:33.410Z,23.99
2018-07-20T07:41:36.450Z,24.18
2018-07-20T07:46:39.485Z,24.36
2018-07-20T07:51:42.577Z,24.76
2018-07-20T07:56:45.885Z,24.60
2018-07-20T08:01:49.067Z,24.36
2018-07-20T08:06:52.062Z,24.61
2018-07-20T08:11:55.082Z,24.71
2018-07-20T08:16:58.092Z,24.74
2018-07-20T08:22:01.114Z,24.73
2018-07-20T08:27:04.160Z,24.88
2018-07-20T08:32:07.266Z,25.09
2018-07-20T08:37:10.362Z,25.21
2018-07-20T08:42:13.426Z,25.38
2018-07-20T08:47:16.539Z,25.60
2018-07-20T08:52:19.647Z,25.73
2018-07-20T08:57:22.674Z,26.00
2018-07-20T09:02:25.701Z,26.26
2018-07-20T09:07:28.805Z,26.47
2018-07-20T09:12:31.879Z,26.84
2018-07-20T09:17:34.948Z,27.14
2018-07-20T09:22:38.077Z,27.30
2018-07-20T09:27:41.130Z,27.57
2018-07-20T09:32:44.219Z,27.76
2018-07-20T09:37:47.263Z,27.94
2018-07-20T09:42:50.283Z,27.65
2018-07-20T09:47:53.433Z,27.44
2018-07-20T09:52:56.451Z,27.69
2018-07-20T09:57:59.535Z,27.75
2018-07-20T10:03:02.564Z,27.86
2018-07-20T10:08:05.698Z,27.88
2018-07-20T10:13:08.765Z,27.88
2018-07-20T10:18:11.866Z,28.16
2018-07-20T10:23:14.910Z,28.44
2018-07-20T10:28:17.926Z,28.50
2018-07-20T10:33:20.989Z,28.50
2018-07-20T10:38:24.096Z,28.52
2018-07-20T10:43:27.134Z,28.86
2018-07-20T10:48:30.164Z,28.64
2018-07-20T10:53:33.345Z,28.90
2018-07-20T10:58:37.410Z,28.93
2018-07-20T11:03:40.918Z,28.97
2018-07-20T11:08:44.681Z,29.33
2018-07-20T11:13:49.815Z,29.85
2018-07-20T11:18:53.863Z,29.63
2018-07-20T11:23:56.906Z,29.88
2018-07-20T11:29:00.006Z,29.65
2018-07-20T11:34:04.282Z,29.95
2018-07-20T11:39:08.788Z,29.81
2018-07-20T11:44:11.873Z,29.76
2018-07-20T11:49:14.859Z,29.92
2018-07-20T11:54:18.668Z,29.96
2018-07-20T11:59:22.169Z,30.23
2018-07-20T12:04:26.153Z,30.37
2018-07-20T12:09:30.004Z,30.39
2018-07-20T12:14:33.506Z,30.54
2018-07-20T12:19:37.093Z,30.83
2018-07-20T12:24:41.137Z,30.86
2018-07-20T12:29:45.557Z,31.13
2018-07-20T12:34:49.762Z,31.37
2018-07-20T12:39:52.993Z,31.69
2018-07-20T12:44:56.046Z,31.71
2018-07-20T12:49:59.074Z,31.41
2018-07-20T12:55:02.124Z,31.55
2018-07-20T13:00:05.286Z,31.96
2018-07-20T13:05:08.369Z,31.84
2018-07-20T13:10:11.471Z,32.13
2018-07-20T13:15:14.636Z,31.63
2018-07-20T13:20:17.675Z,31.91
2018-07-20T13:25:20.692Z,31.75
2018-07-20T13:30:23.708Z,31.89
2018-07-20T13:35:26.835Z,31.92
2018-07-20T13:40:29.905Z,32.50
2018-07-20T13:45:32.938Z,33.13
2018-07-20T13:50:36.020Z,32.65
2018-07-20T13:55:39.050Z,32.72
2018-07-20T14:00:42.123Z,33.09
2018-07-20T14:05:45.153Z,32.81
2018-07-20T14:10:48.300Z,32.67
2018-07-20T14:15:51.256Z,32.22
2018-07-20T14:20:54.358Z,32.68
2018-07-20T14:25:57.442Z,32.50
2018-07-20T14:31:00.557Z,32.83
2018-07-20T14:36:03.586Z,32.76
2018-07-20T14:41:06.661Z,32.89
2018-07-20T14:46:09.726Z,33.26
2018-07-20T14:51:12.854Z,33.55
2018-07-20T14:56:15.934Z,32.94
2018-07-20T15:01:19.117Z,33.21
2018-07-20T15:06:22.134Z,32.97
2018-07-20T15:11:25.252Z,32.68
2018-07-20T15:16:28.348Z,32.72
2018-07-20T15:21:31.435Z,32.90
2018-07-20T15:26:34.673Z,33.19
2018-07-20T15:31:37.729Z,33.04
2018-07-20T15:36:42.364Z,33.25
2018-07-20T15:41:45.802Z,33.03
2018-07-20T15:46:49.056Z,32.72
2018-07-20T15:53:35.461Z,32.94
2018-07-20T15:56:54.999Z,32.69
2018-07-20T16:01:57.998Z,32.54
2018-07-20T16:07:01.029Z,32.44
2018-07-20T16:12:04.074Z,32.37
2018-07-20T16:17:07.097Z,32.02
2018-07-20T16:22:10.100Z,32.10
2018-07-20T16:27:13.261Z,31.99
2018-07-20T16:32:16.310Z,32.33
2018-07-20T16:37:19.306Z,32.32
2018-07-20T16:42:22.418Z,32.16
2018-07-20T16:47:25.455Z,32.41
2018-07-20T16:52:28.478Z,32.62
2018-07-20T16:57:31.538Z,32.51
2018-07-20T17:02:35.427Z,32.38
2018-07-20T17:07:38.502Z,32.06
2018-07-20T17:12:41.523Z,31.93
2018-07-20T17:17:44.505Z,31.65
2018-07-20T17:22:47.583Z,31.53
2018-07-20T17:27:50.590Z,31.54
2018-07-20T17:32:53.604Z,31.48
2018-07-20T17:37:56.621Z,31.27
2018-07-20T17:42:59.710Z,31.01
2018-07-20T17:48:02.837Z,30.80
2018-07-20T17:53:05.941Z,30.71
2018-07-20T17:58:09.306Z,30.71
2018-07-20T18:03:12.349Z,30.50
2018-07-20T18:08:15.330Z,30.46
2018-07-20T18:13:18.347Z,30.39
2018-07-20T18:18:21.365Z,30.38
2018-07-20T18:23:24.383Z,30.16
2018-07-20T18:28:27.406Z,30.00
2018-07-20T18:33:30.386Z,29.89
2018-07-20T18:38:33.423Z,29.65
2018-07-20T18:43:36.438Z,29.52
2018-07-20T18:48:39.505Z,29.31
2018-07-20T18:53:44.153Z,29.17
2018-07-20T18:58:47.312Z,29.08
2018-07-20T19:03:50.460Z,28.90
2018-07-20T19:08:53.545Z,28.75
2018-07-20T19:13:56.717Z,28.60
2018-07-20T19:18:59.898Z,28.44
2018-07-20T19:24:03.020Z,28.25
2018-07-20T19:29:07.633Z,28.08
2018-07-20T19:34:10.753Z,27.88
2018-07-20T19:39:13.858Z,27.69
2018-07-20T19:44:16.862Z,27.57
2018-07-20T19:49:19.980Z,27.44
2018-07-20T19:54:22.986Z,27.30
2018-07-20T19:59:26.130Z,27.14
2018-07-20T20:04:29.153Z,27.02
2018-07-20T20:09:32.274Z,26.96
2018-07-20T20:14:35.307Z,26.94
2018-07-20T20:19:38.390Z,26.88
2018-07-20T20:24:41.437Z,26.78
2018-07-20T20:29:44.503Z,26.60
2018-07-20T20:34:47.603Z,26.53
2018-07-20T20:39:50.718Z,26.47
2018-07-20T20:44:53.726Z,26.33
2018-07-20T20:49:56.832Z,26.30
2018-07-20T20:54:59.921Z,26.13
2018-07-20T21:00:03.869Z,26.08
2018-07-20T21:05:06.968Z,26.03
2018-07-20T21:10:10.038Z,25.86
2018-07-20T21:15:13.150Z,25.80
2018-07-20T21:20:16.306Z,25.74
2018-07-20T21:25:19.339Z,25.43
2018-07-20T21:30:24.028Z,25.47
2018-07-20T21:35:27.153Z,25.39
2018-07-20T21:40:30.158Z,25.29
2018-07-20T21:45:33.187Z,25.27
2018-07-20T21:50:36.209Z,25.18
2018-07-20T21:55:39.225Z,25.19
2018-07-20T22:00:44.362Z,25.06
2018-07-20T22:05:47.377Z,25.01
2018-07-20T22:10:50.384Z,24.88
2018-07-20T22:15:53.385Z,24.90
2018-07-20T22:20:56.370Z,24.81
2018-07-20T22:25:59.413Z,24.72
2018-07-20T22:31:02.462Z,24.53
2018-07-20T22:36:05.518Z,24.56
2018-07-20T22:41:08.542Z,24.37
2018-07-20T22:46:11.525Z,24.39
2018-07-20T22:51:14.896Z,24.36
2018-07-20T22:56:17.877Z,24.26
2018-07-20T23:01:20.898Z,24.19
2018-07-20T23:06:23.953Z,24.13
2018-07-20T23:11:26.940Z,24.08
2018-07-20T23:16:29.965Z,23.91
2018-07-20T23:21:32.973Z,23.91
2018-07-20T23:26:35.970Z,23.91
2018-07-20T23:31:39.005Z,23.94
2018-07-20T23:36:41.974Z,23.87
2018-07-20T23:41:45.011Z,23.89
2018-07-20T23:46:48.070Z,23.81
2018-07-20T23:51:51.101Z,23.76
2018-07-20T23:56:54.117Z,23.67
